Calumet, Oklahoma
Current Conditions -  °F | °C
As of 5:35 AM on Thursday 18 Dec 2014 (Local Time) from KRQO Reporting Station
Overcast Overcast  
Wind Chill: 34°   Ceiling: 300
Heat Index: 37°   Visibility: NA
Dew Point: 37°   Wind: 5mph
Humidity: 100%   Direction: 140°SE
Pressure: 30.09"   Gusts: NA
Location:  35.6°N, 98.12°W
Report Text: KRQO 181135Z AUTO 14004KT OVC003 03/03 A3009 RMK AO2 PWINO
Loading
Personal Weather Stations






























Interactive Weather Map New forecast layout! Learn more

10-Day Weather Forecast

Advertisements
Track Severe Weather on mobile